Time,TemperatureF,DewpointF,PressureIn,WindDirection,WindDirectionDegrees,WindSpeedMPH,WindSpeedGustMPH,Humidity,HourlyPrecipIn,Conditions,Clouds,dailyrainin,SolarRadiationWatts/m^2,SoftwareType,DateUTC
2013-03-18 00:22:00,47.0,46.0,29.98,WSW,255,2.0,17.0,96,0.00,,,0.00,0.000000,,2013-03-18 07:22:00,
2013-03-18 00:32:00,47.0,46.0,29.98,WSW,255,2.0,17.0,96,0.00,,,0.00,0.000000,,2013-03-18 07:32:00,
2013-03-18 00:42:00,47.0,46.0,29.98,WSW,255,2.0,17.0,96,0.00,,,0.00,0.000000,,2013-03-18 07:42:00,
2013-03-18 00:52:00,47.0,46.0,29.98,WSW,255,2.0,17.0,96,0.00,,,0.00,0.000000,,2013-03-18 07:52:00,
2013-03-18 01:22:00,44.0,43.0,29.98,SW,230,1.0,3.0,98,0.00,,,0.00,0.000000,,2013-03-18 08:22:00,
2013-03-18 02:22:00,42.0,41.0,29.98,SSE,152,1.0,3.0,98,0.00,,,0.00,0.000000,,2013-03-18 09:22:00,
2013-03-18 02:33:00,42.0,41.0,29.98,SSE,152,1.0,3.0,98,0.00,,,0.00,0.000000,,2013-03-18 09:33:00,
2013-03-18 03:23:00,41.0,41.0,29.98,SW,232,1.0,3.0,99,-99.99,,,0.00,0.000000,,2013-03-18 10:23:00,
2013-03-18 04:22:00,44.0,44.0,29.96,SSE,147,1.0,3.0,99,-99.99,,,0.00,0.000000,,2013-03-18 11:22:00,
2013-03-18 04:32:00,44.0,44.0,29.96,SSE,147,1.0,3.0,99,-99.99,,,0.00,0.000000,,2013-03-18 11:32:00,
2013-03-18 05:22:00,45.0,45.0,29.96,ENE,59,2.0,4.0,99,0.00,,,0.00,0.000000,,2013-03-18 12:22:00,
2013-03-18 05:32:00,45.0,45.0,29.96,ENE,59,2.0,4.0,99,0.00,,,0.00,0.000000,,2013-03-18 12:32:00,
2013-03-18 05:42:00,45.0,45.0,29.96,ENE,59,2.0,4.0,99,0.00,,,0.00,0.000000,,2013-03-18 12:42:00,
2013-03-18 05:51:00,45.0,45.0,29.96,ENE,59,2.0,4.0,99,0.00,,,0.00,0.000000,,2013-03-18 12:51:00,
2013-03-18 06:22:00,45.0,44.0,29.98,SE,136,2.0,4.0,98,0.00,,,0.00,0.000000,,2013-03-18 13:22:00,
2013-03-18 06:32:00,45.0,44.0,29.98,SE,136,2.0,4.0,98,0.00,,,0.00,0.000000,,2013-03-18 13:32:00,
2013-03-18 06:42:00,45.0,44.0,29.98,SE,136,2.0,4.0,98,0.00,,,0.00,0.000000,,2013-03-18 13:42:00,
2013-03-18 06:52:00,45.0,44.0,29.98,SE,136,2.0,4.0,98,0.00,,,0.00,0.000000,,2013-03-18 13:52:00,
2013-03-18 07:22:00,47.0,46.0,30.01,NE,53,2.0,4.0,98,0.00,,,0.00,0.000000,,2013-03-18 14:22:00,
2013-03-18 07:32:00,47.0,46.0,30.01,NE,53,2.0,4.0,98,0.00,,,0.00,0.000000,,2013-03-18 14:32:00,
2013-03-18 07:42:00,47.0,46.0,30.01,NE,53,2.0,4.0,98,0.00,,,0.00,0.000000,,2013-03-18 14:42:00,
2013-03-18 07:52:00,47.0,46.0,30.01,NE,53,2.0,4.0,98,0.00,,,0.00,0.000000,,2013-03-18 14:52:00,
2013-03-18 08:22:00,48.0,47.0,30.03,SE,130,1.0,4.0,98,0.00,,,0.00,33.000000,,2013-03-18 15:22:00,
2013-03-18 08:33:00,48.0,47.0,30.03,SE,130,1.0,4.0,98,0.00,,,0.00,33.000000,,2013-03-18 15:33:00,
2013-03-18 08:42:00,48.0,47.0,30.03,SE,130,1.0,4.0,98,0.00,,,0.00,33.000000,,2013-03-18 15:42:00,
2013-03-18 08:52:00,48.0,47.0,30.03,SE,130,1.0,4.0,98,0.00,,,0.00,33.000000,,2013-03-18 15:52:00,
2013-03-18 09:22:00,54.0,50.0,30.03,SSW,210,1.0,7.0,85,0.00,,,0.00,163.000000,,2013-03-18 16:22:00,
2013-03-18 09:32:00,54.0,50.0,30.03,SSW,210,1.0,7.0,85,0.00,,,0.00,163.000000,,2013-03-18 16:32:00,
2013-03-18 09:42:00,54.0,50.0,30.03,SSW,210,1.0,7.0,85,0.00,,,0.00,163.000000,,2013-03-18 16:42:00,
2013-03-18 09:52:00,54.0,50.0,30.03,SSW,210,1.0,7.0,85,0.00,,,0.00,163.000000,,2013-03-18 16:52:00,
2013-03-18 10:22:00,58.0,49.0,30.06,NW,326,1.0,10.0,72,0.00,,,0.00,305.000000,,2013-03-18 17:22:00,
2013-03-18 10:32:00,58.0,49.0,30.06,NW,326,1.0,10.0,72,0.00,,,0.00,305.000000,,2013-03-18 17:32:00,
2013-03-18 10:42:00,58.0,49.0,30.06,NW,326,1.0,10.0,72,0.00,,,0.00,305.000000,,2013-03-18 17:42:00,
2013-03-18 10:52:00,58.0,49.0,30.06,NW,326,1.0,10.0,72,0.00,,,0.00,305.000000,,2013-03-18 17:52:00,
2013-03-18 11:22:00,63.0,52.0,30.05,South,184,9.0,14.0,67,0.00,,,0.00,607.000000,,2013-03-18 18:22:00,
2013-03-18 11:32:00,63.0,52.0,30.05,South,184,9.0,14.0,67,0.00,,,0.00,607.000000,,2013-03-18 18:32:00,
2013-03-18 11:42:00,63.0,52.0,30.05,South,184,9.0,14.0,67,0.00,,,0.00,607.000000,,2013-03-18 18:42:00,
2013-03-18 11:52:00,63.0,52.0,30.05,South,184,9.0,14.0,67,0.00,,,0.00,607.000000,,2013-03-18 18:52:00,
2013-03-18 12:22:00,65.0,53.0,30.04,South,181,12.0,19.0,64,0.00,,,0.00,799.000000,,2013-03-18 19:22:00,
2013-03-18 12:32:00,65.0,53.0,30.04,South,181,12.0,19.0,64,0.00,,,0.00,799.000000,,2013-03-18 19:32:00,
2013-03-18 12:42:00,65.0,53.0,30.04,South,181,12.0,19.0,64,0.00,,,0.00,799.000000,,2013-03-18 19:42:00,
2013-03-18 12:52:00,65.0,53.0,30.04,South,181,12.0,19.0,64,0.00,,,0.00,799.000000,,2013-03-18 19:52:00,
2013-03-18 13:22:00,64.0,50.0,30.03,South,179,15.0,22.0,61,0.00,,,0.00,858.000000,,2013-03-18 20:22:00,
2013-03-18 13:32:00,64.0,50.0,30.03,South,179,15.0,22.0,61,0.00,,,0.00,858.000000,,2013-03-18 20:32:00,
2013-03-18 13:42:00,64.0,50.0,30.03,South,179,15.0,22.0,61,0.00,,,0.00,858.000000,,2013-03-18 20:42:00,
2013-03-18 13:52:00,64.0,50.0,30.03,South,179,15.0,22.0,61,0.00,,,0.00,858.000000,,2013-03-18 20:52:00,
2013-03-18 14:22:00,62.0,49.0,30.03,South,180,17.0,25.0,63,0.00,,,0.00,683.000000,,2013-03-18 21:22:00,
2013-03-18 14:32:00,62.0,49.0,30.03,South,180,17.0,25.0,63,0.00,,,0.00,683.000000,,2013-03-18 21:32:00,
2013-03-18 14:42:00,62.0,49.0,30.03,South,180,17.0,25.0,63,0.00,,,0.00,683.000000,,2013-03-18 21:42:00,
2013-03-18 14:52:00,62.0,49.0,30.03,South,180,17.0,25.0,63,0.00,,,0.00,683.000000,,2013-03-18 21:52:00,
2013-03-18 15:23:00,63.0,51.0,30.00,South,171,13.0,26.0,64,0.00,,,0.00,656.000000,,2013-03-18 22:23:00,
2013-03-18 15:33:00,63.0,51.0,30.00,South,171,13.0,26.0,64,0.00,,,0.00,656.000000,,2013-03-18 22:33:00,
2013-03-18 15:42:00,63.0,51.0,30.00,South,171,13.0,26.0,64,0.00,,,0.00,656.000000,,2013-03-18 22:42:00,
2013-03-18 15:52:00,63.0,51.0,30.00,South,171,13.0,26.0,64,0.00,,,0.00,656.000000,,2013-03-18 22:52:00,
2013-03-18 16:22:00,60.0,49.0,29.98,South,179,13.0,21.0,67,0.00,,,0.00,440.000000,,2013-03-18 23:22:00,
2013-03-18 16:32:00,60.0,49.0,29.98,South,179,13.0,21.0,67,0.00,,,0.00,440.000000,,2013-03-18 23:32:00,
2013-03-18 16:42:00,60.0,49.0,29.98,South,179,13.0,21.0,67,0.00,,,0.00,440.000000,,2013-03-18 23:42:00,
2013-03-18 16:52:00,60.0,49.0,29.98,South,179,13.0,21.0,67,0.00,,,0.00,440.000000,,2013-03-18 23:52:00,
2013-03-18 17:22:00,59.0,49.0,29.98,South,180,15.0,25.0,70,0.00,,,0.00,253.000000,,2013-03-19 00:22:00,
2013-03-18 17:32:00,59.0,49.0,29.98,South,180,15.0,25.0,70,0.00,,,0.00,253.000000,,2013-03-19 00:32:00,
2013-03-18 17:42:00,59.0,49.0,29.98,South,180,15.0,25.0,70,0.00,,,0.00,253.000000,,2013-03-19 00:42:00,
2013-03-18 17:52:00,59.0,49.0,29.98,South,180,15.0,25.0,70,0.00,,,0.00,253.000000,,2013-03-19 00:52:00,
2013-03-18 18:22:00,56.0,49.0,29.98,South,172,16.0,26.0,77,0.00,,,0.00,138.000000,,2013-03-19 01:22:00,
2013-03-18 18:32:00,56.0,49.0,29.98,South,172,16.0,26.0,77,0.00,,,0.00,138.000000,,2013-03-19 01:32:00,
2013-03-18 18:42:00,56.0,49.0,29.98,South,172,16.0,26.0,77,0.00,,,0.00,138.000000,,2013-03-19 01:42:00,
2013-03-18 18:52:00,56.0,49.0,29.98,South,172,16.0,26.0,77,0.00,,,0.00,138.000000,,2013-03-19 01:52:00,
2013-03-18 19:22:00,55.0,49.0,30.01,South,172,8.0,24.0,80,0.00,,,0.00,44.000000,,2013-03-19 02:22:00,
2013-03-18 19:32:00,55.0,49.0,30.01,South,172,8.0,24.0,80,0.00,,,0.00,44.000000,,2013-03-19 02:32:00,
2013-03-18 19:42:00,55.0,49.0,30.01,South,172,8.0,24.0,80,0.00,,,0.00,44.000000,,2013-03-19 02:42:00,
2013-03-18 19:52:00,55.0,49.0,30.01,South,172,8.0,24.0,80,0.00,,,0.00,44.000000,,2013-03-19 02:52:00,
2013-03-18 20:22:00,55.0,49.0,30.03,NNE,15,5.0,12.0,81,0.00,,,0.00,0.000000,,2013-03-19 03:22:00,
2013-03-18 20:32:00,55.0,49.0,30.03,NNE,15,5.0,12.0,81,0.00,,,0.00,0.000000,,2013-03-19 03:32:00,
2013-03-18 20:43:00,55.0,49.0,30.03,NNE,15,5.0,12.0,81,0.00,,,0.00,0.000000,,2013-03-19 03:43:00,
2013-03-18 20:53:00,55.0,49.0,30.03,NNE,15,5.0,12.0,81,0.00,,,0.00,0.000000,,2013-03-19 03:53:00,
2013-03-18 21:23:00,52.0,48.0,30.05,NNE,21,4.0,10.0,85,0.00,,,0.00,0.000000,,2013-03-19 04:23:00,
2013-03-18 21:33:00,52.0,48.0,30.05,NNE,21,4.0,10.0,85,0.00,,,0.00,0.000000,,2013-03-19 04:33:00,
2013-03-18 21:42:00,52.0,48.0,30.05,NNE,21,4.0,10.0,85,0.00,,,0.00,0.000000,,2013-03-19 04:42:00,
2013-03-18 21:52:00,52.0,48.0,30.05,NNE,21,4.0,10.0,85,0.00,,,0.00,0.000000,,2013-03-19 04:52:00,
2013-03-18 22:22:00,51.0,48.0,30.05,NNW,344,2.0,7.0,90,0.00,,,0.00,0.000000,,2013-03-19 05:22:00,
2013-03-18 22:32:00,51.0,48.0,30.05,NNW,344,2.0,7.0,90,0.00,,,0.00,0.000000,,2013-03-19 05:32:00,
2013-03-18 22:42:00,51.0,48.0,30.05,NNW,344,2.0,7.0,90,0.00,,,0.00,0.000000,,2013-03-19 05:42:00,
2013-03-18 22:51:00,51.0,48.0,30.05,NNW,344,2.0,7.0,90,0.00,,,0.00,0.000000,,2013-03-19 05:51:00,
2013-03-18 23:22:00,48.0,46.0,30.05,WSW,243,1.0,3.0,94,0.00,,,0.00,0.000000,,2013-03-19 06:22:00,
2013-03-18 23:32:00,48.0,46.0,30.05,WSW,243,1.0,3.0,94,0.00,,,0.00,0.000000,,2013-03-19 06:32:00,
2013-03-18 23:42:00,48.0,46.0,30.05,WSW,243,1.0,3.0,94,0.00,,,0.00,0.000000,,2013-03-19 06:42:00,
2013-03-18 23:52:00,48.0,46.0,30.05,WSW,243,1.0,3.0,94,0.00,,,0.00,0.000000,,2013-03-19 06:52:00,